Time;durP1;ratioP1;P1;durP2;ratioP2;P2;SDS_P1;SDS_P2;PMS_P1;PMS_P2;Temp;Humidity;BMP_temperature;BMP_pressure;BME280_temperature;BME280_humidity;BME280_pressure;Samples;Min_cycle;Max_cycle;Signal;HPM_P1;HPM_P2
2024/01/07 00:01:22;;;;;;;13.93;8.77;;;-1.40;7.80;;;;;;8248279;28;21115;-80
2024/01/07 00:05:23;;;;;;;14.23;8.83;;;-1.50;2.90;;;;;;8260404;28;20305;-81
2024/01/07 00:09:23;;;;;;;14.30;9.20;;;-1.60;2.90;;;;;;8242915;28;20241;-81
2024/01/07 00:13:24;;;;;;;15.60;8.77;;;-1.60;6.50;;;;;;8241381;28;20207;-82
2024/01/07 00:17:25;;;;;;;16.63;8.97;;;-1.60;10.80;;;;;;8240526;28;20267;-82
2024/01/07 00:21:26;;;;;;;16.10;9.67;;;-1.60;13.20;;;;;;8255105;28;21364;-81
2024/01/07 00:25:26;;;;;;;17.13;10.03;;;-1.60;13.70;;;;;;8272075;28;20200;-82
2024/01/07 00:29:30;;;;;;;14.27;9.77;;;-1.60;9.80;;;;;;8272648;28;20185;-81
2024/01/07 00:33:32;;;;;;;16.37;11.13;;;-1.70;6.40;;;;;;8256103;28;20195;-81
2024/01/07 00:37:34;;;;;;;17.33;10.73;;;-1.70;4.00;;;;;;8260111;28;20222;-81
2024/01/07 00:41:35;;;;;;;17.07;11.00;;;-1.70;8.50;;;;;;8262381;28;20193;-81
2024/01/07 00:45:36;;;;;;;15.60;10.07;;;-1.80;15.70;;;;;;8250682;28;20184;-81
2024/01/07 00:49:37;;;;;;;15.30;9.47;;;-1.90;16.10;;;;;;8249807;28;20286;-81
2024/01/07 00:53:37;;;;;;;22.23;10.50;;;-1.90;22.50;;;;;;8258825;28;20429;-81
2024/01/07 00:57:38;;;;;;;17.17;9.93;;;-1.90;22.50;;;;;;8266766;28;20204;-79
2024/01/07 01:01:39;;;;;;;17.37;10.67;;;-1.90;19.80;;;;;;8249308;28;20183;-79
2024/01/07 01:05:40;;;;;;;15.10;9.53;;;-1.90;17.20;;;;;;8245449;28;20256;-78
2024/01/07 01:09:41;;;;;;;17.63;11.33;;;-1.80;12.60;;;;;;8252188;28;20195;-79
2024/01/07 01:13:41;;;;;;;18.40;11.67;;;-1.80;4.50;;;;;;8251880;28;20294;-79
2024/01/07 01:17:42;;;;;;;19.93;10.20;;;-1.80;3.10;;;;;;8235664;28;20332;-78
2024/01/07 01:21:43;;;;;;;18.30;11.83;;;-1.80;1.00;;;;;;8251142;28;20188;-79
2024/01/07 01:25:44;;;;;;;18.80;11.00;;;-1.80;1.00;;;;;;8237752;28;20206;-79
2024/01/07 01:29:45;;;;;;;21.23;10.73;;;-1.80;1.00;;;;;;8233701;28;20196;-78
2024/01/07 01:33:46;;;;;;;18.50;9.80;;;-1.80;1.00;;;;;;8234494;28;20470;-79
2024/01/07 01:37:46;;;;;;;17.10;9.97;;;-1.80;1.00;;;;;;8234605;28;20212;-78
2024/01/07 01:41:47;;;;;;;17.27;10.07;;;-1.80;1.00;;;;;;8234146;28;20280;-78
2024/01/07 01:45:48;;;;;;;13.23;8.67;;;-1.80;1.00;;;;;;8236243;28;20535;-77
2024/01/07 01:49:49;;;;;;;14.60;9.67;;;-1.80;1.00;;;;;;8239806;28;20198;-79
2024/01/07 01:53:51;;;;;;;15.97;9.37;;;-1.90;1.00;;;;;;8238373;28;20190;-78
2024/01/07 01:57:54;;;;;;;18.70;10.10;;;-1.90;1.00;;;;;;8230835;28;20222;-78
2024/01/07 02:01:55;;;;;;;12.87;9.37;;;-2.00;1.00;;;;;;8231505;28;20198;-78
2024/01/07 02:05:57;;;;;;;15.37;9.23;;;-2.00;1.00;;;;;;8232666;28;20197;-79
2024/01/07 02:09:59;;;;;;;13.20;8.33;;;-2.00;1.00;;;;;;8232405;28;20195;-78
2024/01/07 02:13:59;;;;;;;15.30;8.30;;;-2.00;1.00;;;;;;8246690;28;20207;-79
2024/01/07 02:18:00;;;;;;;15.30;9.40;;;-2.00;1.00;;;;;;8234404;28;20221;-80
2024/01/07 02:22:01;;;;;;;14.43;8.87;;;-2.00;1.00;;;;;;8240899;28;20281;-78
2024/01/07 02:26:02;;;;;;;14.50;9.00;;;-2.10;1.00;;;;;;8247399;28;20211;-80
2024/01/07 02:30:05;;;;;;;13.20;8.50;;;-2.10;1.00;;;;;;8224828;28;20207;-80
2024/01/07 02:34:05;;;;;;;14.57;8.43;;;-2.10;1.00;;;;;;8224718;28;20278;-79
2024/01/07 02:38:06;;;;;;;11.63;7.93;;;-2.20;1.00;;;;;;8227077;28;20214;-79
2024/01/07 02:42:07;;;;;;;14.50;8.57;;;-2.20;8.80;;;;;;8246977;28;20289;-79
2024/01/07 02:46:08;;;;;;;13.87;8.33;;;-2.30;1.00;;;;;;8231713;28;20238;-79
2024/01/07 02:50:09;;;;;;;13.27;7.97;;;-2.30;1.00;;;;;;8232271;28;20184;-79
2024/01/07 02:54:10;;;;;;;13.73;9.07;;;-2.30;1.00;;;;;;8236751;28;20199;-80
2024/01/07 02:58:10;;;;;;;13.93;6.63;;;-2.30;1.00;;;;;;8257882;28;20220;-80
2024/01/07 03:02:11;;;;;;;12.80;6.90;;;-2.30;1.00;;;;;;8274065;28;20195;-80
2024/01/07 03:06:12;;;;;;;13.33;7.90;;;-2.40;1.00;;;;;;8257415;28;20196;-79
2024/01/07 03:10:13;;;;;;;10.33;7.33;;;-2.40;1.00;;;;;;8232967;28;20263;-80
2024/01/07 03:14:16;;;;;;;12.50;7.77;;;-2.40;1.00;;;;;;8240251;28;20187;-78
2024/01/07 03:18:17;;;;;;;12.97;8.50;;;-2.50;1.00;;;;;;8245392;28;20235;-78
2024/01/07 03:22:18;;;;;;;12.63;7.53;;;-2.50;1.00;;;;;;8232981;28;20189;-78
2024/01/07 03:26:19;;;;;;;27.43;19.30;;;-2.50;1.00;;;;;;8225534;28;20200;-79
2024/01/07 03:30:20;;;;;;;14.93;8.73;;;-2.40;1.00;;;;;;8230394;28;20198;-78
2024/01/07 03:34:21;;;;;;;13.13;7.73;;;-2.40;1.00;;;;;;8242199;28;20196;-78
2024/01/07 03:38:22;;;;;;;12.47;7.97;;;-2.40;1.00;;;;;;8228718;28;20207;-78
2024/01/07 03:42:25;;;;;;;13.40;7.97;;;-2.40;1.00;;;;;;8232909;28;20195;-78
2024/01/07 03:46:26;;;;;;;11.97;7.07;;;-2.50;1.00;;;;;;8224588;28;20242;-77
2024/01/07 03:50:27;;;;;;;15.73;10.03;;;-2.50;1.00;;;;;;8248433;28;20191;-78
2024/01/07 03:54:28;;;;;;;24.43;13.63;;;-2.60;1.30;;;;;;8233761;28;20692;-79
2024/01/07 03:58:28;;;;;;;23.10;11.53;;;-2.60;2.20;;;;;;8231184;28;20349;-79
2024/01/07 04:02:29;;;;;;;12.90;8.27;;;-2.70;3.70;;;;;;8226685;28;20207;-79
2024/01/07 04:06:32;;;;;;;14.50;7.90;;;-2.70;3.00;;;;;;8230979;28;20195;-79
2024/01/07 04:10:33;;;;;;;16.83;10.37;;;-2.70;3.90;;;;;;8248940;28;20226;-79
2024/01/07 04:14:35;;;;;;;13.60;8.47;;;-2.70;8.40;;;;;;8232959;28;20215;-78
2024/01/07 04:18:36;;;;;;;11.00;7.27;;;-2.80;13.10;;;;;;8232767;28;20223;-79
2024/01/07 04:22:36;;;;;;;16.03;9.50;;;-2.80;20.60;;;;;;8230809;28;20175;-79
2024/01/07 04:26:37;;;;;;;13.07;7.83;;;-2.80;18.40;;;;;;8244909;28;20187;-78
2024/01/07 04:30:38;;;;;;;16.40;8.73;;;-2.80;4.80;;;;;;8260736;28;20195;-81
2024/01/07 04:34:39;;;;;;;13.17;7.43;;;-2.80;1.00;;;;;;8279558;28;20195;-81
2024/01/07 04:38:39;;;;;;;9.80;6.70;;;-2.70;1.00;;;;;;8257476;28;20227;-81
2024/01/07 04:42:40;;;;;;;15.67;8.37;;;-2.70;1.00;;;;;;8250927;28;20453;-80
2024/01/07 04:46:41;;;;;;;14.60;8.47;;;-2.70;1.00;;;;;;8255770;28;20613;-80
2024/01/07 04:50:45;;;;;;;14.27;8.67;;;-2.80;1.00;;;;;;8258804;28;20195;-80
2024/01/07 04:54:46;;;;;;;16.20;9.80;;;-2.80;1.00;;;;;;8273458;28;20203;-80
2024/01/07 04:58:46;;;;;;;17.63;8.80;;;-2.80;1.00;;;;;;8249546;28;20311;-80
2024/01/07 05:02:50;;;;;;;12.00;7.87;;;-2.80;1.00;;;;;;8262161;28;20218;-80
2024/01/07 05:06:51;;;;;;;14.33;7.50;;;-2.80;1.00;;;;;;8239781;28;20191;-80
2024/01/07 05:10:52;;;;;;;13.63;8.53;;;-2.80;1.00;;;;;;8239786;28;20188;-80
2024/01/07 05:14:55;;;;;;;31.07;13.47;;;-2.80;1.00;;;;;;8247161;28;20231;-81
2024/01/07 05:18:56;;;;;;;11.10;7.83;;;-2.70;1.00;;;;;;8259452;28;20215;-81
2024/01/07 05:22:57;;;;;;;12.97;8.30;;;-2.80;1.00;;;;;;8248122;28;20180;-81
2024/01/07 05:26:58;;;;;;;12.93;8.03;;;-2.70;1.00;;;;;;8266465;28;20190;-80
2024/01/07 05:30:58;;;;;;;11.43;7.40;;;-2.70;1.00;;;;;;8283152;28;20187;-80
2024/01/07 05:34:59;;;;;;;8.77;5.87;;;-2.70;1.00;;;;;;8274840;28;21632;-80
2024/01/07 05:39:02;;;;;;;11.07;6.43;;;-2.70;1.00;;;;;;8294365;28;20864;-80
2024/01/07 05:43:06;;;;;;;9.13;6.57;;;-2.80;1.00;;;;;;8271882;28;20352;-81
2024/01/07 05:47:07;;;;;;;11.17;7.60;;;-2.70;1.00;;;;;;8269650;28;20187;-81
2024/01/07 05:51:08;;;;;;;9.63;6.90;;;-2.80;1.00;;;;;;8254606;28;20195;-81
2024/01/07 05:55:09;;;;;;;14.07;7.43;;;-2.80;1.00;;;;;;8250422;28;20340;-81
2024/01/07 05:59:10;;;;;;;11.53;6.90;;;-2.80;1.00;;;;;;8258517;28;20216;-81
2024/01/07 06:03:11;;;;;;;10.57;6.97;;;-2.80;1.00;;;;;;8266874;28;20536;-81
2024/01/07 06:07:12;;;;;;;12.30;8.97;;;-2.80;1.00;;;;;;8248423;28;20199;-81
2024/01/07 06:11:18;;;;;;;11.07;6.53;;;-2.80;1.00;;;;;;8260818;28;20199;-81
2024/01/07 06:15:19;;;;;;;11.53;7.43;;;-2.80;1.00;;;;;;8259730;28;20227;-81
2024/01/07 06:19:20;;;;;;;12.73;8.70;;;-2.80;1.00;;;;;;8262040;28;20219;-81
2024/01/07 06:23:21;;;;;;;17.40;11.17;;;-2.80;1.00;;;;;;8252239;28;20476;-81
2024/01/07 06:27:23;;;;;;;10.10;7.87;;;-2.80;1.00;;;;;;8274472;28;20188;-81
2024/01/07 06:31:23;;;;;;;18.47;10.27;;;-2.80;1.00;;;;;;8275908;28;20742;-81
2024/01/07 06:35:24;;;;;;;14.87;9.43;;;-2.80;1.00;;;;;;8260832;28;20262;-81
2024/01/07 06:39:28;;;;;;;13.37;9.43;;;-2.90;1.00;;;;;;8264539;28;20352;-80
2024/01/07 06:43:29;;;;;;;10.23;6.97;;;-2.80;1.00;;;;;;8276396;28;20211;-81
2024/01/07 06:47:29;;;;;;;17.63;10.47;;;-2.80;1.00;;;;;;8257070;28;20223;-79
2024/01/07 06:51:30;;;;;;;14.30;10.20;;;-2.80;1.00;;;;;;8236883;28;20278;-80
2024/01/07 06:55:31;;;;;;;10.30;7.97;;;-2.90;1.00;;;;;;8237241;28;20195;-80
2024/01/07 06:59:35;;;;;;;12.43;6.90;;;-2.90;1.00;;;;;;8237749;28;20218;-79
2024/01/07 07:03:40;;;;;;;8.27;6.93;;;-2.90;1.00;;;;;;8232500;28;20198;-79
2024/01/07 07:07:41;;;;;;;13.90;7.77;;;-3.00;1.00;;;;;;8243460;28;20187;-79
2024/01/07 07:11:42;;;;;;;12.53;8.57;;;-3.00;1.00;;;;;;8251401;28;20227;-78
2024/01/07 07:15:43;;;;;;;19.60;10.10;;;-3.10;1.00;;;;;;8252926;28;20272;-80
2024/01/07 07:19:44;;;;;;;16.97;9.80;;;-3.10;1.00;;;;;;8235141;28;20538;-79
2024/01/07 07:23:45;;;;;;;30.37;18.77;;;-3.10;1.00;;;;;;8243357;28;20183;-79
2024/01/07 07:27:45;;;;;;;17.20;9.90;;;-3.00;1.00;;;;;;8233628;28;20194;-80
2024/01/07 07:31:49;;;;;;;10.33;7.57;;;-3.10;1.00;;;;;;8244791;28;20644;-79
2024/01/07 07:35:49;;;;;;;9.60;6.80;;;-3.10;1.00;;;;;;8247258;28;20192;-80
2024/01/07 07:39:50;;;;;;;10.50;7.03;;;-3.10;1.00;;;;;;8234497;28;20277;-77
2024/01/07 07:43:57;;;;;;;8.50;5.77;;;-3.10;1.00;;;;;;8235686;28;20412;-79
2024/01/07 07:47:58;;;;;;;11.37;6.77;;;-3.10;1.00;;;;;;8240153;28;20266;-79
2024/01/07 07:52:02;;;;;;;8.60;5.40;;;-3.10;1.00;;;;;;8245045;28;20196;-79
2024/01/07 07:56:05;;;;;;;9.27;6.43;;;-3.10;1.00;;;;;;8236673;28;21299;-78
2024/01/07 08:00:08;;;;;;;7.63;4.83;;;-3.20;1.00;;;;;;8235994;28;20379;-79
2024/01/07 08:04:10;;;;;;;6.37;4.43;;;-3.20;1.00;;;;;;8255304;28;20481;-81
2024/01/07 08:08:12;;;;;;;14.83;7.77;;;-3.20;1.00;;;;;;8283061;28;20172;-81
2024/01/07 08:12:22;;;;;;;20.70;8.60;;;-3.10;1.00;;;;;;8274666;28;20278;-82
2024/01/07 08:16:22;;;;;;;91.07;30.77;;;-3.10;1.00;;;;;;8288385;28;20215;-81
2024/01/07 08:20:23;;;;;;;18.93;7.70;;;-3.10;1.00;;;;;;8243930;28;20198;-79
2024/01/07 08:24:24;;;;;;;81.37;27.40;;;-3.10;1.00;;;;;;8262069;28;20215;-79
2024/01/07 08:28:25;;;;;;;48.87;18.10;;;-3.00;1.00;;;;;;8252266;28;20198;-79
2024/01/07 08:32:26;;;;;;;11.07;5.63;;;-3.00;1.00;;;;;;8259979;28;20290;-77
2024/01/07 08:36:27;;;;;;;13.00;5.70;;;-3.00;1.00;;;;;;8253949;28;20231;-78
2024/01/07 08:40:29;;;;;;;7.90;4.07;;;-3.00;1.00;;;;;;8245376;28;20200;-79
2024/01/07 08:44:30;;;;;;;14.30;6.07;;;-2.90;1.00;;;;;;8242330;28;20202;-78
2024/01/07 08:48:31;;;;;;;26.93;12.30;;;-2.90;1.00;;;;;;8240758;28;20199;-79
2024/01/07 08:52:35;;;;;;;15.33;7.43;;;-2.80;1.00;;;;;;8255939;28;20196;-80
2024/01/07 08:56:35;;;;;;;27.87;11.87;;;-2.90;1.00;;;;;;8257487;28;20208;-78
2024/01/07 09:00:36;;;;;;;11.43;5.40;;;-2.90;1.00;;;;;;8241178;28;20223;-79
2024/01/07 09:04:37;;;;;;;11.77;5.80;;;-2.90;1.00;;;;;;8248607;28;20199;-78
2024/01/07 09:08:38;;;;;;;16.70;10.00;;;-2.90;1.00;;;;;;8243449;28;20198;-80
2024/01/07 09:12:39;;;;;;;19.30;12.40;;;-2.90;1.00;;;;;;8263046;28;20226;-80
2024/01/07 09:16:40;;;;;;;7.93;5.10;;;-2.90;1.00;;;;;;8242724;28;20215;-81
2024/01/07 09:20:44;;;;;;;11.67;8.10;;;-2.90;1.00;;;;;;8259942;28;20318;-80
2024/01/07 09:24:45;;;;;;;18.07;10.33;;;-3.00;1.00;;;;;;8261527;28;20310;-80
2024/01/07 09:28:48;;;;;;;10.13;5.40;;;-2.90;1.00;;;;;;8248878;28;20192;-80
2024/01/07 09:32:50;;;;;;;9.47;5.67;;;-2.90;1.00;;;;;;8246969;28;20198;-80
2024/01/07 09:36:51;;;;;;;12.50;5.40;;;-2.90;1.00;;;;;;8251506;28;20290;-80
2024/01/07 09:40:53;;;;;;;9.00;5.73;;;-2.90;1.00;;;;;;8248348;28;20224;-80
2024/01/07 09:45:07;;;;;;;13.77;7.37;;;-2.90;1.00;;;;;;8259495;28;20180;-81
2024/01/07 09:49:08;;;;;;;8.00;5.03;;;-3.00;1.00;;;;;;8245608;28;20199;-80
2024/01/07 09:53:16;;;;;;;7.33;4.93;;;-3.10;1.00;;;;;;8244772;28;20290;-80
2024/01/07 09:57:16;;;;;;;26.40;12.03;;;-3.40;1.00;;;;;;8253394;28;20200;-80
2024/01/07 10:01:18;;;;;;;9.93;5.50;;;-3.50;1.00;;;;;;8242080;28;20251;-81
2024/01/07 10:05:19;;;;;;;26.07;13.27;;;-3.60;1.00;;;;;;8240131;28;20210;-80
2024/01/07 10:09:25;;;;;;;33.90;13.87;;;-3.60;1.00;;;;;;8240728;28;20211;-80
2024/01/07 10:13:26;;;;;;;36.57;14.37;;;-3.50;1.00;;;;;;8241115;28;20192;-80
2024/01/07 10:17:27;;;;;;;15.80;7.57;;;-3.50;1.00;;;;;;8238676;28;20207;-80
2024/01/07 10:21:31;;;;;;;82.30;30.03;;;-3.50;1.00;;;;;;8234294;28;20219;-80
2024/01/07 10:25:32;;;;;;;110.27;47.93;;;-3.60;1.00;;;;;;8242729;28;20215;-80
2024/01/07 10:29:34;;;;;;;45.57;19.90;;;-3.60;1.00;;;;;;8249621;28;20187;-78
2024/01/07 10:33:34;;;;;;;34.27;14.30;;;-3.50;1.00;;;;;;8258195;28;20197;-77
2024/01/07 10:37:35;;;;;;;101.57;35.37;;;-3.50;1.00;;;;;;8265409;28;20207;-76
2024/01/07 10:41:38;;;;;;;56.60;20.33;;;-3.60;1.00;;;;;;8266776;28;20203;-76
2024/01/07 10:45:39;;;;;;;20.83;9.63;;;-3.70;1.00;;;;;;8269374;28;20183;-80
2024/01/07 10:49:44;;;;;;;84.30;28.03;;;-3.90;1.00;;;;;;8246743;28;20188;-78
2024/01/07 10:53:51;;;;;;;13.97;7.03;;;-3.90;1.00;;;;;;8244741;28;20196;-79
2024/01/07 10:57:56;;;;;;;16.17;6.60;;;-4.00;1.00;;;;;;8282934;28;20221;-79
2024/01/07 11:01:56;;;;;;;21.43;9.50;;;-4.00;1.00;;;;;;8246307;28;20226;-79
2024/01/07 11:06:25;;;;;;;22.47;10.97;;;-4.00;1.00;;;;;;8248436;28;20191;-81
2024/01/07 11:10:34;;;;;;;34.13;13.60;;;-4.00;1.00;;;;;;8241829;28;20187;-81
2024/01/07 11:14:36;;;;;;;40.73;16.50;;;-3.90;1.00;;;;;;8266763;28;20211;-80
2024/01/07 11:18:50;;;;;;;24.63;10.60;;;-3.80;1.00;;;;;;8245916;28;20219;-79
2024/01/07 11:22:51;;;;;;;59.00;21.23;;;-3.70;1.00;;;;;;8238410;28;20191;-79
2024/01/07 11:26:53;;;;;;;55.70;20.33;;;-3.60;1.00;;;;;;8238136;28;20183;-79
2024/01/07 11:30:54;;;;;;;44.13;19.73;;;-3.60;1.00;;;;;;8251649;28;20187;-78
2024/01/07 11:34:56;;;;;;;30.50;13.40;;;-3.60;1.00;;;;;;8270157;28;20190;-80
2024/01/07 11:38:57;;;;;;;24.17;10.17;;;-3.50;1.00;;;;;;8267189;28;20222;-80
2024/01/07 11:42:58;;;;;;;31.33;13.70;;;-3.30;1.00;;;;;;8240257;28;20188;-80
2024/01/07 11:47:02;;;;;;;33.40;15.13;;;-3.20;1.00;;;;;;8252090;28;20238;-80
2024/01/07 11:51:03;;;;;;;20.63;9.37;;;-3.10;1.00;;;;;;8236761;28;20211;-80
2024/01/07 11:55:05;;;;;;;21.07;10.50;;;-3.00;1.00;;;;;;8255257;28;20187;-80
2024/01/07 11:59:07;;;;;;;10.30;5.87;;;-2.90;1.00;;;;;;8245504;28;20255;-81
2024/01/07 12:03:08;;;;;;;18.37;9.30;;;-3.10;1.00;;;;;;8236263;28;20226;-80
2024/01/07 12:07:14;;;;;;;27.57;12.73;;;-3.40;1.00;;;;;;8236897;28;20286;-80
2024/01/07 12:11:15;;;;;;;14.73;7.10;;;-3.40;1.00;;;;;;8240806;28;20191;-80
2024/01/07 12:15:17;;;;;;;14.47;8.23;;;-3.60;1.00;;;;;;8259336;28;20212;-80
2024/01/07 12:19:23;;;;;;;12.40;7.43;;;-3.60;1.00;;;;;;8234491;28;20314;-80
2024/01/07 12:23:25;;;;;;;10.67;6.57;;;-3.70;1.00;;;;;;8255911;28;20524;-80
2024/01/07 12:27:26;;;;;;;11.83;7.13;;;-3.90;1.00;;;;;;8234880;28;20195;-80
2024/01/07 12:31:27;;;;;;;12.80;6.67;;;-4.00;1.00;;;;;;8265472;28;20191;-80
2024/01/07 12:35:29;;;;;;;9.37;6.30;;;-4.00;1.00;;;;;;8249148;28;20218;-80
2024/01/07 12:39:29;;;;;;;27.40;14.20;;;-4.00;1.00;;;;;;8260132;28;20217;-80
2024/01/07 12:43:33;;;;;;;16.97;8.07;;;-3.80;1.00;;;;;;8243034;28;20183;-80
2024/01/07 12:47:35;;;;;;;24.47;11.03;;;-3.70;1.00;;;;;;8264943;28;20223;-79
2024/01/07 12:51:38;;;;;;;11.97;7.20;;;-3.60;1.00;;;;;;8245195;28;20191;-80
2024/01/07 12:55:40;;;;;;;15.77;8.40;;;-3.50;1.00;;;;;;8245667;28;20291;-80
2024/01/07 12:59:41;;;;;;;20.30;10.80;;;-3.40;1.00;;;;;;8263082;28;20211;-79
2024/01/07 13:03:42;;;;;;;22.73;9.10;;;-3.40;1.00;;;;;;8282494;28;20242;-79
2024/01/07 13:07:43;;;;;;;28.40;12.10;;;-3.40;1.00;;;;;;8301817;28;20206;-81
2024/01/07 13:11:44;;;;;;;33.83;15.23;;;-3.40;1.00;;;;;;8295743;28;20276;-79
2024/01/07 13:15:45;;;;;;;19.03;9.47;;;-3.20;1.00;;;;;;8262637;28;20196;-79
2024/01/07 13:19:45;;;;;;;30.47;13.97;;;-3.30;1.00;;;;;;8258508;28;20254;-79
2024/01/07 13:23:47;;;;;;;52.63;20.20;;;-3.50;1.00;;;;;;8239916;28;20190;-79
2024/01/07 13:27:49;;;;;;;51.80;20.27;;;-3.40;1.00;;;;;;8250017;28;20198;-79
2024/01/07 13:31:50;;;;;;;21.10;9.73;;;-3.40;1.00;;;;;;8248077;28;20187;-79
2024/01/07 13:35:50;;;;;;;36.13;13.67;;;-3.40;1.00;;;;;;8234019;28;20212;-80
2024/01/07 13:39:51;;;;;;;59.93;22.33;;;-3.50;1.00;;;;;;8244154;28;20222;-80
2024/01/07 13:43:52;;;;;;;31.03;13.27;;;-3.50;1.00;;;;;;8264220;28;20188;-79
2024/01/07 13:47:56;;;;;;;20.77;9.10;;;-3.50;1.00;;;;;;8240477;28;20251;-79
2024/01/07 13:51:57;;;;;;;65.30;25.93;;;-3.60;1.00;;;;;;8239025;28;20195;-80
2024/01/07 13:55:58;;;;;;;32.37;14.57;;;-3.70;1.00;;;;;;8241964;28;20179;-80
2024/01/07 13:59:59;;;;;;;15.33;7.87;;;-3.70;1.00;;;;;;8240775;28;20211;-80
2024/01/07 14:04:00;;;;;;;35.93;14.77;;;-3.60;1.00;;;;;;8236691;28;20204;-79
2024/01/07 14:08:00;;;;;;;55.83;21.53;;;-3.60;1.00;;;;;;8236025;28;20191;-79
2024/01/07 14:12:02;;;;;;;38.57;13.53;;;-3.60;1.00;;;;;;8251267;28;20202;-79
2024/01/07 14:16:03;;;;;;;31.33;14.73;;;-3.60;1.00;;;;;;8235774;28;20211;-80
2024/01/07 14:20:06;;;;;;;58.10;25.23;;;-3.70;1.00;;;;;;8251414;28;20215;-79
2024/01/07 14:24:07;;;;;;;12.33;7.27;;;-3.80;1.00;;;;;;8234553;28;20215;-79
2024/01/07 14:28:08;;;;;;;27.80;11.77;;;-3.90;1.00;;;;;;8238258;28;20234;-80
2024/01/07 14:32:09;;;;;;;21.20;10.43;;;-3.90;1.00;;;;;;8242060;28;20271;-78
2024/01/07 14:36:16;;;;;;;14.93;9.03;;;-3.90;1.00;;;;;;8232907;28;20199;-79
2024/01/07 14:40:17;;;;;;;18.17;10.10;;;-4.00;1.00;;;;;;8242249;28;20214;-79
2024/01/07 14:44:18;;;;;;;23.50;12.13;;;-4.00;1.00;;;;;;8237847;28;20211;-79
2024/01/07 14:48:19;;;;;;;14.07;7.67;;;-4.00;1.00;;;;;;8238568;28;20195;-79
2024/01/07 14:52:38;;;;;;;12.03;6.77;;;-4.00;1.00;;;;;;8261340;28;20194;-79
2024/01/07 14:56:42;;;;;;;10.13;6.37;;;-4.20;1.00;;;;;;8268625;28;20195;-79
2024/01/07 15:00:43;;;;;;;11.00;6.87;;;-4.30;1.00;;;;;;8239577;28;20206;-80
2024/01/07 15:04:45;;;;;;;31.20;11.57;;;-4.40;1.00;;;;;;8255400;28;20609;-80
2024/01/07 15:08:50;;;;;;;17.33;9.00;;;-4.40;1.00;;;;;;8257510;28;20255;-81
2024/01/07 15:12:51;;;;;;;13.23;6.53;;;-4.40;1.00;;;;;;8239466;28;20197;-80
2024/01/07 15:17:03;;;;;;;10.67;6.40;;;-4.50;1.00;;;;;;8243632;28;20207;-80
2024/01/07 15:21:04;;;;;;;10.83;6.30;;;-4.60;1.00;;;;;;8269188;28;20207;-81
2024/01/07 15:25:06;;;;;;;16.97;8.03;;;-4.60;1.00;;;;;;8238690;28;20192;-81
2024/01/07 15:29:07;;;;;;;11.97;7.00;;;-4.60;1.00;;;;;;8252364;28;20218;-80
2024/01/07 15:33:08;;;;;;;13.33;6.53;;;-4.70;1.00;;;;;;8280061;28;20192;-80
2024/01/07 15:37:09;;;;;;;14.63;7.13;;;-4.70;1.00;;;;;;8278414;28;20206;-80
2024/01/07 15:41:10;;;;;;;17.90;8.57;;;-4.70;1.00;;;;;;8275815;28;20232;-80
2024/01/07 15:45:11;;;;;;;16.00;8.27;;;-4.70;1.00;;;;;;8274607;28;20325;-79
2024/01/07 15:49:15;;;;;;;13.80;7.03;;;-4.70;1.00;;;;;;8262268;28;20214;-80
2024/01/07 15:53:16;;;;;;;16.13;8.07;;;-4.70;1.00;;;;;;8233017;28;20242;-79
2024/01/07 15:57:17;;;;;;;19.03;9.90;;;-4.70;1.00;;;;;;8233782;28;20242;-79
2024/01/07 16:01:18;;;;;;;13.10;7.03;;;-4.60;1.00;;;;;;8240261;28;20194;-80
2024/01/07 16:05:19;;;;;;;18.50;10.03;;;-4.70;1.00;;;;;;8231729;28;20228;-79
2024/01/07 16:09:28;;;;;;;17.03;8.63;;;-4.60;1.00;;;;;;8241711;28;20194;-79
2024/01/07 16:13:32;;;;;;;14.97;8.83;;;-4.60;1.00;;;;;;8250349;28;20195;-80
2024/01/07 16:17:32;;;;;;;12.80;7.47;;;-4.50;1.00;;;;;;8247568;28;20712;-78
2024/01/07 16:21:36;;;;;;;14.27;7.30;;;-4.60;1.00;;;;;;8231380;28;20198;-78
2024/01/07 16:25:38;;;;;;;12.83;6.77;;;-4.50;1.00;;;;;;8232351;28;20241;-79
2024/01/07 16:29:39;;;;;;;12.77;6.90;;;-4.50;1.00;;;;;;8235487;28;20297;-79
2024/01/07 16:33:40;;;;;;;7.63;5.13;;;-4.70;1.00;;;;;;8250516;28;20190;-77
2024/01/07 16:37:41;;;;;;;9.27;5.37;;;-4.70;1.00;;;;;;8226958;28;20209;-78
2024/01/07 16:41:45;;;;;;;11.40;5.63;;;-4.90;1.00;;;;;;8238101;28;20243;-78
2024/01/07 16:45:46;;;;;;;15.10;8.37;;;-5.20;1.00;;;;;;8235311;28;20185;-78
2024/01/07 16:49:47;;;;;;;13.87;7.10;;;-5.30;1.00;;;;;;8244494;28;20194;-79
2024/01/07 16:53:48;;;;;;;16.03;8.23;;;-5.40;1.00;;;;;;8229107;28;20191;-80
2024/01/07 16:57:49;;;;;;;22.47;10.60;;;-5.50;1.00;;;;;;8231916;28;20225;-78
2024/01/07 17:01:50;;;;;;;37.50;16.63;;;-5.50;1.00;;;;;;8235305;28;20189;-78
2024/01/07 17:05:51;;;;;;;16.60;10.40;;;-5.60;1.00;;;;;;8247174;28;20223;-77
2024/01/07 17:09:51;;;;;;;13.57;7.60;;;-5.60;1.00;;;;;;8241233;28;20538;-79
2024/01/07 17:13:53;;;;;;;17.57;9.03;;;-5.70;1.00;;;;;;8237429;28;20201;-77
2024/01/07 17:17:57;;;;;;;12.50;7.47;;;-5.70;1.00;;;;;;8229992;28;20221;-79
2024/01/07 17:21:58;;;;;;;12.23;6.33;;;-5.80;1.00;;;;;;8248942;28;20210;-78
2024/01/07 17:26:02;;;;;;;10.57;6.07;;;-5.90;1.00;;;;;;8232025;28;20185;-77
2024/01/07 17:30:03;;;;;;;14.83;8.73;;;-6.00;1.00;;;;;;8256480;28;20223;-77
2024/01/07 17:34:05;;;;;;;12.67;7.23;;;-6.10;1.00;;;;;;8238810;28;20196;-79
2024/01/07 17:38:05;;;;;;;9.53;6.30;;;-6.10;1.00;;;;;;8246227;28;20273;-78
2024/01/07 17:42:07;;;;;;;15.00;6.80;;;-6.10;1.00;;;;;;8251539;28;20221;-80
2024/01/07 17:46:09;;;;;;;12.50;6.90;;;-6.00;1.00;;;;;;8245448;28;20185;-78
2024/01/07 17:50:10;;;;;;;14.40;8.03;;;-6.00;1.00;;;;;;8239549;28;20277;-79
2024/01/07 17:54:11;;;;;;;18.40;10.27;;;-6.10;1.00;;;;;;8249635;28;20200;-77
2024/01/07 17:58:13;;;;;;;16.23;9.60;;;-6.10;1.00;;;;;;8270525;28;20269;-77
2024/01/07 18:02:14;;;;;;;20.63;10.87;;;-6.20;1.00;;;;;;8248950;28;20219;-77
2024/01/07 18:06:15;;;;;;;28.07;14.30;;;-6.20;1.00;;;;;;8252462;28;20224;-77
2024/01/07 18:10:16;;;;;;;33.20;14.57;;;-6.20;1.00;;;;;;8263454;28;20501;-80
2024/01/07 18:14:18;;;;;;;22.30;11.10;;;-6.20;1.00;;;;;;8269639;28;20190;-80
2024/01/07 18:18:19;;;;;;;20.40;9.93;;;-6.20;1.00;;;;;;8251499;28;20248;-80
2024/01/07 18:22:20;;;;;;;16.93;9.43;;;-6.10;1.00;;;;;;8241885;28;20206;-80
2024/01/07 18:26:23;;;;;;;24.03;12.20;;;-6.00;1.00;;;;;;8237296;28;20196;-80
2024/01/07 18:30:24;;;;;;;30.87;12.73;;;-6.10;1.00;;;;;;8250631;28;20191;-80
2024/01/07 18:34:37;;;;;;;21.77;9.27;;;-6.10;1.00;;;;;;8268362;28;20229;-80
2024/01/07 18:38:39;;;;;;;47.50;18.47;;;-6.20;1.00;;;;;;8251286;28;20225;-81
2024/01/07 18:42:44;;;;;;;40.13;17.40;;;-6.30;1.00;;;;;;8247890;28;20192;-80
2024/01/07 18:46:46;;;;;;;27.20;12.47;;;-6.40;1.00;;;;;;8270067;28;20217;-79
2024/01/07 18:50:47;;;;;;;37.47;17.20;;;-6.40;1.00;;;;;;8269200;28;20201;-78
2024/01/07 18:54:52;;;;;;;42.33;19.83;;;-6.40;1.00;;;;;;8252663;28;20201;-78
2024/01/07 18:58:53;;;;;;;34.30;17.77;;;-6.50;1.00;;;;;;8244944;28;20310;-79
2024/01/07 19:02:57;;;;;;;29.37;15.23;;;-6.60;1.00;;;;;;8274613;28;20231;-78
2024/01/07 19:06:58;;;;;;;26.63;13.00;;;-6.70;1.00;;;;;;8258657;28;20196;-80
2024/01/07 19:10:59;;;;;;;29.53;14.97;;;-6.80;1.00;;;;;;8264384;28;20191;-80
2024/01/07 19:15:11;;;;;;;24.43;13.63;;;-6.90;1.00;;;;;;8267357;28;20219;-77
2024/01/07 19:19:12;;;;;;;33.57;14.63;;;-7.00;1.00;;;;;;8232847;28;20334;-79
2024/01/07 19:23:13;;;;;;;15.40;7.70;;;-7.10;1.00;;;;;;8234070;28;20192;-79
2024/01/07 19:27:14;;;;;;;27.23;12.63;;;-7.10;1.00;;;;;;8248304;28;20251;-80
2024/01/07 19:31:17;;;;;;;56.13;24.07;;;-7.10;1.00;;;;;;8224743;28;20231;-80
2024/01/07 19:35:19;;;;;;;26.50;13.43;;;-7.10;1.00;;;;;;8231218;28;20184;-81
2024/01/07 19:39:21;;;;;;;18.57;8.33;;;-7.10;1.00;;;;;;8235964;28;20288;-79
2024/01/07 19:43:22;;;;;;;18.00;8.90;;;-7.00;1.00;;;;;;8239628;28;20191;-79
2024/01/07 19:47:23;;;;;;;16.00;8.07;;;-7.00;1.00;;;;;;8226478;28;20494;-80
2024/01/07 19:51:24;;;;;;;19.70;8.77;;;-7.00;1.00;;;;;;8227602;28;20210;-81
2024/01/07 19:55:25;;;;;;;20.10;8.30;;;-7.00;1.00;;;;;;8232033;28;20187;-79
2024/01/07 19:59:26;;;;;;;19.10;9.47;;;-7.00;1.00;;;;;;8239801;28;20282;-79
2024/01/07 20:03:27;;;;;;;15.50;8.23;;;-7.10;1.00;;;;;;8232875;28;20199;-78
2024/01/07 20:07:28;;;;;;;17.67;7.63;;;-7.10;1.00;;;;;;8233221;28;20199;-79
2024/01/07 20:11:29;;;;;;;36.00;11.57;;;-7.10;1.00;;;;;;8251536;28;20260;-80
2024/01/07 20:15:30;;;;;;;54.93;14.90;;;-7.10;1.00;;;;;;8229816;28;20215;-78
2024/01/07 20:19:33;;;;;;;55.60;19.30;;;-7.10;1.00;;;;;;8228810;28;20215;-80
2024/01/07 20:23:34;;;;;;;14.27;7.20;;;-7.10;1.00;;;;;;8229979;28;20187;-79
2024/01/07 20:27:35;;;;;;;29.10;10.93;;;-7.10;1.00;;;;;;8253904;28;20499;-81
2024/01/07 20:31:35;;;;;;;16.30;8.23;;;-7.20;1.00;;;;;;8274592;28;20207;-80
2024/01/07 20:35:37;;;;;;;16.00;8.47;;;-7.20;1.00;;;;;;8279795;28;20226;-81
2024/01/07 20:39:38;;;;;;;19.87;8.93;;;-7.30;1.00;;;;;;8256204;28;20220;-79
2024/01/07 20:43:39;;;;;;;43.50;18.10;;;-7.40;1.00;;;;;;8231386;28;20188;-80
2024/01/07 20:47:40;;;;;;;32.93;13.87;;;-7.30;1.00;;;;;;8228791;28;20206;-79
2024/01/07 20:51:41;;;;;;;58.13;22.90;;;-7.30;1.00;;;;;;8235839;28;20192;-80